Time;durP1;ratioP1;P1;durP2;ratioP2;P2;SDS_P1;SDS_P2;PMS_P1;PMS_P2;Temp;Humidity;BMP_temperature;BMP_pressure;BME280_temperature;BME280_humidity;BME280_pressure;Samples;Min_cycle;Max_cycle;Signal;HPM_P1;HPM_P2
2022/07/11 00:02:28;;;;;;;7.18;5.00;;;;;;;14.75;82.08;97598.38;10332868;28;19983;-55
2022/07/11 00:07:27;;;;;;;7.78;5.18;;;;;;;14.79;82.36;97600.03;10331495;28;20077;-55
2022/07/11 00:12:26;;;;;;;7.75;5.25;;;;;;;14.80;82.09;97589.56;10333299;28;20121;-55
2022/07/11 00:17:25;;;;;;;7.72;5.57;;;;;;;14.76;83.09;97587.91;10331983;28;20068;-55
2022/07/11 00:22:24;;;;;;;15.35;5.88;;;;;;;14.73;82.46;97592.31;10331951;28;20041;-55
2022/07/11 00:27:23;;;;;;;;;;;;;;;14.67;83.01;97593.28;10330629;28;20040;-55
2022/07/11 00:32:22;;;;;;;7.45;6.25;;;;;;;14.49;83.77;97586.66;10331786;28;20469;-55
2022/07/11 00:37:21;;;;;;;;;;;;;;;14.34;85.04;97586.97;10332273;28;20497;-55
2022/07/11 00:42:19;;;;;;;8.40;6.90;;;;;;;14.28;85.23;97598.34;10332633;28;19948;-55
2022/07/11 00:47:18;;;;;;;;;;;;;;;14.24;85.40;97591.50;10331576;28;20073;-55
2022/07/11 00:52:17;;;;;;;10.73;7.53;;;;;;;14.20;85.34;97592.44;10331695;28;19909;-55
2022/07/11 00:57:16;;;;;;;12.40;8.23;;;;;;;14.14;85.38;97600.38;10331795;28;20064;-55
2022/07/11 01:02:15;;;;;;;9.65;7.82;;;;;;;14.09;86.24;97591.75;10331966;28;20056;-55
2022/07/11 01:07:14;;;;;;;9.55;7.00;;;;;;;14.05;86.34;97603.13;10338904;28;20076;-55
2022/07/11 01:12:14;;;;;;;8.02;6.72;;;;;;;13.99;86.18;97607.56;10338906;28;20056;-55
2022/07/11 01:17:12;;;;;;;;;;;;;;;13.81;87.37;97607.88;10340231;28;20468;-55
2022/07/11 01:22:14;;;;;;;7.65;6.82;;;;;;;13.50;90.13;97615.28;10338935;28;20384;-55
2022/07/11 01:27:13;;;;;;;9.15;8.02;;;;;;;13.40;90.17;97622.41;10338662;28;20118;-55
2022/07/11 01:32:11;;;;;;;12.93;8.10;;;;;;;12.82;92.55;97628.38;10338344;28;20021;-55
2022/07/11 01:37:10;;;;;;;10.50;8.30;;;;;;;12.89;91.41;97622.19;10338328;28;20052;-55
2022/07/11 01:42:09;;;;;;;13.95;8.68;;;;;;;12.94;91.13;97623.00;10338758;28;20038;-55
2022/07/11 01:47:08;;;;;;;15.25;9.15;;;;;;;12.97;91.06;97609.94;10337749;28;20489;-56
2022/07/11 01:52:08;;;;;;;13.18;8.90;;;;;;;12.99;91.13;97615.13;10337375;28;20121;-55
2022/07/11 01:57:09;;;;;;;12.52;10.00;;;;;;;12.97;91.61;97633.38;10337611;28;20068;-55
2022/07/11 02:02:08;;;;;;;12.52;9.63;;;;;;;12.94;91.78;97628.22;10336668;28;20083;-55
2022/07/11 02:07:07;;;;;;;14.65;9.48;;;;;;;12.79;93.48;97641.41;10337657;28;20116;-55
2022/07/11 02:12:06;;;;;;;;;;;;;;;12.77;93.54;97638.84;10336320;28;20064;-55
2022/07/11 02:17:06;;;;;;;13.70;10.38;;;;;;;12.66;93.62;97643.31;10335413;28;19913;-55
2022/07/11 02:22:05;;;;;;;13.02;10.10;;;;;;;12.63;93.50;97646.81;10336438;28;20085;-55
2022/07/11 02:27:05;;;;;;;15.98;10.73;;;;;;;12.54;93.37;97654.72;10335703;28;20115;-55
2022/07/11 02:32:04;;;;;;;;;;;;;;;12.56;93.03;97652.09;10337131;28;20451;-55
2022/07/11 02:37:03;;;;;;;17.10;10.00;;;;;;;12.45;93.23;97657.41;10336069;28;20199;-55
2022/07/11 02:42:02;;;;;;;;;;;;;;;12.45;93.30;97652.19;10336239;28;20071;-55
2022/07/11 02:47:01;;;;;;;12.30;8.98;;;;;;;12.45;93.30;97658.25;10336113;28;19920;-55
2022/07/11 02:51:59;;;;;;;10.65;7.30;;;;;;;12.43;92.90;97651.34;10335713;28;20493;-55
2022/07/11 02:56:59;;;;;;;9.65;7.18;;;;;;;12.45;92.98;97665.22;10335454;28;20045;-55
2022/07/11 03:01:58;;;;;;;9.70;7.18;;;;;;;12.43;92.58;97672.16;10335251;28;20069;-55
2022/07/11 03:06:57;;;;;;;13.77;7.80;;;;;;;12.42;92.23;97675.66;10334783;28;20073;-55
2022/07/11 03:11:56;;;;;;;;;;;;;;;12.39;92.48;97675.66;10334588;28;20069;-55
2022/07/11 03:16:55;;;;;;;11.23;8.30;;;;;;;12.39;92.71;97680.88;10334772;28;19909;-55
2022/07/11 03:21:54;;;;;;;;;;;;;;;12.41;92.59;97686.94;10334904;28;20449;-55
2022/07/11 03:26:53;;;;;;;16.80;9.07;;;;;;;12.42;92.33;97689.53;10334498;28;19913;-55
2022/07/11 03:31:52;;;;;;;16.63;9.90;;;;;;;12.47;92.29;97692.09;10334662;28;20033;-55
2022/07/11 03:36:51;;;;;;;16.27;10.35;;;;;;;12.35;93.45;97697.41;10333925;28;20045;-55
2022/07/11 03:41:50;;;;;;;16.67;10.50;;;;;;;12.41;93.36;97692.13;10333510;28;20073;-55
2022/07/11 03:46:49;;;;;;;17.95;9.65;;;;;;;12.40;94.17;97687.81;10333565;28;20088;-55
2022/07/11 03:51:52;;;;;;;17.08;10.38;;;;;;;12.47;93.83;97689.50;10332960;28;20152;-55
2022/07/11 03:56:51;;;;;;;13.82;10.32;;;;;;;12.54;93.84;97700.72;10333087;28;20499;-55
2022/07/11 04:01:51;;;;;;;14.38;10.00;;;;;;;12.67;93.71;97692.75;10333011;28;20068;-55
2022/07/11 04:06:49;;;;;;;;;;;;;;;12.79;93.19;97698.69;10332433;28;20073;-55
2022/07/11 04:11:48;;;;;;;13.20;8.45;;;;;;;12.45;94.58;97704.25;10331713;28;20000;-55
2022/07/11 04:16:47;;;;;;;11.73;7.15;;;;;;;12.47;94.14;97710.31;10332846;28;20025;-55
2022/07/11 04:21:47;;;;;;;13.18;8.05;;;;;;;12.52;94.21;97714.56;10332138;28;20536;-55
2022/07/11 04:26:46;;;;;;;15.82;8.73;;;;;;;12.71;93.77;97714.41;10332091;28;20084;-55
2022/07/11 04:31:45;;;;;;;13.13;8.55;;;;;;;12.78;94.03;97710.00;10332223;28;20033;-55
2022/07/11 04:36:44;;;;;;;12.70;7.15;;;;;;;12.73;93.74;97718.72;10330520;28;20037;-55
2022/07/11 04:41:43;;;;;;;8.20;6.63;;;;;;;12.97;92.42;97716.72;10331629;28;20071;-55
2022/07/11 04:46:42;;;;;;;10.38;5.88;;;;;;;13.11;92.35;97720.03;10330793;28;20120;-55
2022/07/11 04:51:41;;;;;;;8.32;5.13;;;;;;;13.08;92.43;97727.03;10328028;28;20030;-55
2022/07/11 04:56:40;;;;;;;7.28;3.85;;;;;;;12.99;90.90;97730.59;10331773;28;20436;-56
2022/07/11 05:01:39;;;;;;;6.40;4.20;;;;;;;13.12;90.66;97726.13;10327383;28;20052;-55
2022/07/11 05:06:38;;;;;;;5.80;4.53;;;;;;;13.28;90.45;97726.78;10331305;28;20477;-56
2022/07/11 05:11:37;;;;;;;7.35;4.30;;;;;;;13.51;89.76;97729.09;10328402;28;20156;-55
2022/07/11 05:16:36;;;;;;;7.05;4.35;;;;;;;13.73;88.82;97727.13;10320184;28;20515;-55
2022/07/11 05:21:35;;;;;;;9.52;4.97;;;;;;;13.78;88.02;97687.03;10330607;28;20047;-55
2022/07/11 05:26:35;;;;;;;5.50;4.32;;;;;;;14.30;86.55;97721.88;10326423;28;20049;-55
2022/07/11 05:31:34;;;;;;;8.02;4.80;;;;;;;14.40;86.18;97725.19;10330131;28;20083;-55
2022/07/11 05:36:33;;;;;;;7.05;4.70;;;;;;;14.60;85.94;97711.81;10328775;28;20040;-55
2022/07/11 05:41:32;;;;;;;;;;;;;;;14.66;83.95;97711.69;10316314;28;20077;-55
2022/07/11 05:46:31;;;;;;;7.95;4.78;;;;;;;15.03;84.38;97718.88;10329669;28;19958;-55
2022/07/11 05:51:30;;;;;;;;;;;;;;;15.24;82.01;97713.22;10318234;28;20104;-55
2022/07/11 05:56:29;;;;;;;9.07;5.05;;;;;;;15.43;80.96;97718.91;10329950;28;19964;-58
2022/07/11 06:01:28;;;;;;;6.97;5.03;;;;;;;15.72;80.48;97716.59;10336299;28;20073;-55
2022/07/11 06:06:27;;;;;;;;;;;;;;;15.91;76.40;97720.53;10330370;28;20081;-55
2022/07/11 06:11:26;;;;;;;7.10;3.60;;;;;;;16.06;75.99;97712.31;10360457;28;19968;-55
2022/07/11 06:16:25;;;;;;;;;;;;;;;16.43;75.73;97714.03;10337175;28;20051;-55
2022/07/11 06:21:27;;;;;;;6.50;3.85;;;;;;;16.67;73.64;97711.69;10336031;28;20008;-55
2022/07/11 06:26:26;;;;;;;4.20;3.63;;;;;;;17.04;72.11;97719.47;10336276;28;20077;-55
2022/07/11 06:31:25;;;;;;;4.60;2.70;;;;;;;17.28;68.76;97711.81;10335727;28;20079;-55
2022/07/11 06:36:24;;;;;;;5.38;3.25;;;;;;;17.56;66.07;97709.22;10336637;28;20044;-55
2022/07/11 06:41:23;;;;;;;4.32;3.65;;;;;;;17.83;66.34;97712.84;10335009;28;20081;-55
2022/07/11 06:46:22;;;;;;;2.50;2.20;;;;;;;18.08;62.23;97707.69;10335331;28;20136;-55
2022/07/11 06:51:22;;;;;;;;;;;;;;;18.34;60.00;97708.59;10335606;28;20121;-55
2022/07/11 06:56:20;;;;;;;8.60;2.50;;;;;;;18.67;58.86;97701.34;10316182;28;19971;-55
2022/07/11 07:01:19;;;;;;;3.80;1.90;;;;;;;18.60;53.44;97705.94;10334447;28;20112;-55
2022/07/11 07:06:19;;;;;;;3.15;2.08;;;;;;;18.76;54.77;97697.56;10335180;28;20116;-55
2022/07/11 07:11:19;;;;;;;4.00;2.88;;;;;;;18.84;54.49;97697.31;10333836;28;20566;-55
2022/07/11 07:16:18;;;;;;;4.03;2.15;;;;;;;18.94;51.55;97702.16;10332092;28;20519;-55
2022/07/11 07:21:17;;;;;;;8.95;2.25;;;;;;;19.17;51.70;97696.09;10331019;28;20423;-55
2022/07/11 07:26:15;;;;;;;3.95;1.85;;;;;;;19.72;50.04;97687.94;10332659;28;20032;-55
2022/07/11 07:31:14;;;;;;;2.40;1.92;;;;;;;20.07;47.02;97680.38;10334062;28;20044;-55
2022/07/11 07:36:14;;;;;;;3.25;1.75;;;;;;;20.43;46.40;97690.38;10334605;28;20124;-55
2022/07/11 07:41:14;;;;;;;4.10;1.98;;;;;;;20.31;46.19;97691.72;10333614;28;20077;-56
2022/07/11 07:46:14;;;;;;;4.22;2.00;;;;;;;20.27;45.64;97696.25;10332340;28;20080;-56
2022/07/11 07:51:13;;;;;;;2.30;1.70;;;;;;;20.53;43.85;97701.41;10333123;28;20068;-56
2022/07/11 07:56:12;;;;;;;2.97;1.75;;;;;;;20.73;43.03;97697.91;10297985;28;20033;-56
2022/07/11 08:06:28;;;;;;;4.38;1.48;;;;;;;20.38;39.65;97705.50;10329478;28;20064;-55
2022/07/11 08:11:28;;;;;;;3.15;1.30;;;;;;;20.10;38.94;97711.03;10335078;28;20064;-56
2022/07/11 08:16:30;;;;;;;3.30;1.60;;;;;;;19.80;40.01;97727.97;10336484;28;20072;-55
2022/07/11 08:21:30;;;;;;;2.67;1.98;;;;;;;19.85;41.16;97714.63;10336441;28;20061;-55
2022/07/11 08:26:29;;;;;;;1.58;1.27;;;;;;;20.02;41.37;97719.22;10319493;28;20480;-56
2022/07/11 08:31:28;;;;;;;2.10;1.55;;;;;;;20.21;40.94;97722.84;10292922;28;20073;-55
2022/07/11 08:36:29;;;;;;;2.90;1.65;;;;;;;20.42;40.80;97702.72;10302631;28;20111;-55
2022/07/11 08:41:28;;;;;;;2.90;1.80;;;;;;;20.42;40.39;97718.53;10333523;28;20548;-55
2022/07/11 08:46:29;;;;;;;3.20;1.63;;;;;;;20.97;42.00;97720.59;10333447;28;20587;-55
2022/07/11 08:51:29;;;;;;;2.88;1.90;;;;;;;21.41;39.63;97701.09;10333622;28;20089;-55
2022/07/11 08:56:29;;;;;;;1.77;1.65;;;;;;;21.82;38.72;97706.22;10330943;28;20080;-56
2022/07/11 09:01:32;;;;;;;1.88;1.33;;;;;;;21.89;37.77;97703.22;10333160;28;20077;-55
2022/07/11 09:06:31;;;;;;;3.13;1.50;;;;;;;21.84;38.29;97707.88;10318431;28;20068;-56
2022/07/11 09:11:51;;;;;;;2.40;1.80;;;;;;;21.79;37.45;97695.81;10317688;28;20037;-56
2022/07/11 09:17:02;;;;;;;2.83;1.52;;;;;;;21.81;37.72;97707.19;10312101;28;20512;-55
2022/07/11 09:27:22;;;;;;;1.92;1.58;;;;;;;21.69;38.45;97703.31;10326846;28;20076;-55
2022/07/11 09:32:25;;;;;;;2.28;1.48;;;;;;;21.85;39.15;97706.97;10336167;28;20033;-56
2022/07/11 09:37:42;;;;;;;1.52;1.42;;;;;;;21.71;37.99;97706.72;10335284;28;20148;-55
2022/07/11 09:42:54;;;;;;;2.88;1.80;;;;;;;21.69;38.72;97712.09;10331010;28;20072;-55
2022/07/11 09:47:55;;;;;;;5.70;2.60;;;;;;;21.91;39.62;97711.09;10305689;28;20100;-55
2022/07/11 09:53:08;;;;;;;2.95;1.50;;;;;;;21.98;37.26;97712.50;10307333;28;20072;-56
2022/07/11 09:58:09;;;;;;;2.05;1.48;;;;;;;22.02;36.83;97713.25;10320131;28;20080;-55
2022/07/11 10:03:10;;;;;;;2.15;1.50;;;;;;;22.07;36.31;97719.16;10316760;28;20528;-55
2022/07/11 10:08:10;;;;;;;4.47;1.98;;;;;;;22.41;36.78;97704.28;10319772;28;20061;-55
2022/07/11 10:13:09;;;;;;;1.75;1.40;;;;;;;22.42;35.48;97709.50;10322355;28;20076;-55
2022/07/11 10:18:40;;;;;;;1.83;1.67;;;;;;;22.32;35.45;97718.81;10332747;28;20050;-56
2022/07/11 10:23:51;;;;;;;2.33;1.67;;;;;;;22.15;35.62;97727.56;10310791;28;20120;-55
2022/07/11 10:28:59;;;;;;;2.88;1.40;;;;;;;22.05;35.94;97718.38;10326053;28;20073;-55
2022/07/11 10:34:03;;;;;;;1.85;1.30;;;;;;;21.89;35.74;97711.16;10336406;28;20464;-56
2022/07/11 10:39:33;;;;;;;1.30;1.20;;;;;;;21.81;36.26;97720.38;10334968;28;20093;-55
2022/07/11 10:44:53;;;;;;;2.60;1.63;;;;;;;22.00;36.55;97720.41;10310279;28;20159;-55
2022/07/11 10:49:53;;;;;;;2.65;1.70;;;;;;;22.17;36.17;97718.63;10316855;28;20122;-55
2022/07/11 10:55:31;;;;;;;3.08;1.88;;;;;;;22.08;35.44;97712.94;10297895;28;20072;-55
2022/07/11 11:00:31;;;;;;;2.05;1.17;;;;;;;22.15;35.23;97714.34;10294363;28;20077;-55
2022/07/11 11:05:52;;;;;;;1.77;1.60;;;;;;;22.15;34.38;97724.94;10294979;28;20069;-55
2022/07/11 11:10:52;;;;;;;1.75;1.42;;;;;;;22.39;34.04;97710.53;10326310;28;20073;-56
2022/07/11 11:15:56;;;;;;;2.10;1.48;;;;;;;22.31;34.54;97723.25;10334618;28;20524;-56
2022/07/11 11:20:57;;;;;;;2.40;1.20;;;;;;;22.17;33.87;97723.91;10335013;28;20088;-55
2022/07/11 11:26:06;;;;;;;2.05;1.40;;;;;;;22.24;34.02;97729.78;10334576;28;20064;-56
2022/07/11 11:31:06;;;;;;;3.08;1.55;;;;;;;22.16;34.21;97726.66;10334184;28;20068;-55
2022/07/11 11:36:09;;;;;;;3.80;1.75;;;;;;;21.95;34.02;97728.50;10334028;28;20069;-56
2022/07/11 11:41:08;;;;;;;2.60;1.45;;;;;;;22.23;34.70;97722.78;10333392;28;20088;-55
2022/07/11 11:46:07;;;;;;;2.25;1.40;;;;;;;22.07;33.83;97727.94;10333611;28;20064;-55
2022/07/11 11:51:15;;;;;;;1.80;1.33;;;;;;;22.31;34.47;97710.03;10333656;28;20030;-57
2022/07/11 11:56:16;;;;;;;1.75;1.45;;;;;;;22.58;34.70;97715.75;10333210;28;20067;-56
2022/07/11 12:01:21;;;;;;;3.85;1.52;;;;;;;22.39;32.74;97726.41;10332692;28;20061;-56
2022/07/11 12:06:26;;;;;;;1.70;1.30;;;;;;;22.35;34.58;97727.47;10332091;28;20087;-56
2022/07/11 12:11:25;;;;;;;1.40;1.30;;;;;;;22.63;34.13;97715.53;10332050;28;20073;-56
2022/07/11 12:16:41;;;;;;;1.65;1.33;;;;;;;22.93;33.68;97712.28;10332444;28;20072;-56
2022/07/11 12:21:45;;;;;;;2.53;1.90;;;;;;;22.92;32.45;97723.78;10331955;28;20069;-56
2022/07/11 12:26:44;;;;;;;1.95;1.85;;;;;;;23.00;33.46;97730.41;10333801;28;20087;-56
2022/07/11 12:31:57;;;;;;;2.25;1.60;;;;;;;22.82;34.17;97714.63;10335398;28;20099;-56
2022/07/11 12:37:04;;;;;;;4.00;1.90;;;;;;;22.67;34.82;97724.16;10335266;28;20037;-55
2022/07/11 12:42:33;;;;;;;5.75;3.10;;;;;;;22.65;34.10;97728.66;10335298;28;20069;-56
2022/07/11 12:47:33;;;;;;;2.17;1.30;;;;;;;22.78;34.17;97714.75;10294471;28;20077;-56
2022/07/11 12:52:37;;;;;;;1.65;1.52;;;;;;;23.08;33.55;97727.34;10332209;28;20460;-56
2022/07/11 12:57:36;;;;;;;2.17;1.98;;;;;;;23.25;32.98;97722.97;10334797;28;20040;-56
2022/07/11 13:02:35;;;;;;;2.40;1.90;;;;;;;22.96;34.01;97712.13;10342823;28;20064;-56
2022/07/11 13:12:54;;;;;;;2.13;1.70;;;;;;;22.91;34.21;97720.28;10324022;28;20069;-56
2022/07/11 13:17:54;;;;;;;2.60;1.50;;;;;;;22.92;34.29;97726.44;10312894;28;20073;-56
2022/07/11 13:22:54;;;;;;;3.15;1.58;;;;;;;22.36;35.02;97733.59;10303557;28;20081;-56
2022/07/11 13:27:53;;;;;;;1.85;1.50;;;;;;;22.08;35.02;97727.00;10301582;28;20077;-57
2022/07/11 13:32:52;;;;;;;1.88;1.33;;;;;;;22.23;34.78;97735.16;10321640;28;20076;-56
2022/07/11 13:37:52;;;;;;;2.58;1.65;;;;;;;22.06;34.90;97739.47;10318904;28;20124;-56
2022/07/11 13:42:52;;;;;;;2.00;1.45;;;;;;;22.30;35.27;97729.47;10301004;28;20576;-56
2022/07/11 13:47:51;;;;;;;1.60;1.50;;;;;;;22.47;34.34;97743.66;10318712;28;20080;-56
2022/07/11 13:52:50;;;;;;;8.18;1.70;;;;;;;22.62;34.32;97729.66;10318663;28;20049;-58
2022/07/11 13:57:51;;;;;;;3.13;1.60;;;;;;;22.80;33.75;97731.41;10319436;28;20084;-57
2022/07/11 14:02:51;;;;;;;1.70;1.55;;;;;;;22.85;34.17;97730.34;10317467;28;20072;-57
2022/07/11 14:07:51;;;;;;;1.65;1.45;;;;;;;22.81;33.80;97729.63;10319022;28;20068;-57
2022/07/11 14:12:50;;;;;;;2.10;1.50;;;;;;;22.91;34.38;97735.31;10316648;28;20069;-57
2022/07/11 14:17:49;;;;;;;2.50;1.60;;;;;;;22.85;34.29;97740.91;10309468;28;20076;-57
2022/07/11 14:22:48;;;;;;;2.10;1.50;;;;;;;22.80;34.08;97731.41;10298467;28;20189;-57
2022/07/11 14:27:47;;;;;;;2.22;1.60;;;;;;;22.76;34.46;97727.25;10297426;28;20042;-57
2022/07/11 14:32:47;;;;;;;2.13;1.40;;;;;;;22.56;34.41;97735.28;10298371;28;20037;-56
2022/07/11 14:37:46;;;;;;;1.80;1.70;;;;;;;22.21;34.89;97742.28;10298358;28;20096;-56
2022/07/11 14:42:45;;;;;;;2.53;1.60;;;;;;;21.93;34.85;97752.34;10303372;28;20037;-56
2022/07/11 14:47:45;;;;;;;2.85;1.70;;;;;;;21.45;35.90;97729.06;10318231;28;20069;-56
2022/07/11 14:52:44;;;;;;;2.80;1.83;;;;;;;21.33;36.67;97749.78;10315482;28;20076;-56
2022/07/11 14:57:43;;;;;;;1.77;1.60;;;;;;;21.15;36.47;97758.50;10323303;28;20080;-56
2022/07/11 15:13:17;;;;;;;1.80;1.70;;;;;;;21.06;36.60;97764.19;10334768;28;20061;-56
2022/07/11 15:18:16;;;;;;;1.92;1.80;;;;;;;21.22;37.14;97760.00;10332277;28;20096;-56
2022/07/11 15:23:15;;;;;;;4.50;2.03;;;;;;;21.34;36.51;97762.09;10333889;28;20065;-56
2022/07/11 15:28:14;;;;;;;2.28;1.70;;;;;;;21.37;36.86;97763.72;10334509;28;20041;-56
2022/07/11 15:33:13;;;;;;;2.25;1.80;;;;;;;21.54;36.93;97777.00;10336617;28;20476;-56
2022/07/11 15:38:12;;;;;;;3.75;2.08;;;;;;;21.49;36.53;97776.38;10337600;28;20483;-56
2022/07/11 15:43:11;;;;;;;2.88;1.70;;;;;;;21.45;37.60;97772.19;10336303;28;20068;-56
2022/07/11 15:48:09;;;;;;;4.90;2.83;;;;;;;21.45;37.09;97782.75;10334159;28;20052;-56
2022/07/11 15:53:08;;;;;;;4.70;1.92;;;;;;;21.31;37.21;97774.53;10335159;28;20045;-56
2022/07/11 15:58:07;;;;;;;3.30;1.75;;;;;;;21.06;36.97;97788.78;10334960;28;20079;-56
2022/07/11 16:03:07;;;;;;;3.13;2.42;;;;;;;21.02;37.38;97788.97;10334348;28;20070;-56
2022/07/11 16:08:06;;;;;;;2.55;2.15;;;;;;;20.89;37.80;97794.78;10334603;28;20073;-56
2022/07/11 16:13:05;;;;;;;1.90;1.80;;;;;;;20.66;38.46;97795.75;10334195;28;20096;-55
2022/07/11 16:18:04;;;;;;;2.10;1.60;;;;;;;20.59;38.75;97802.19;10318762;28;20060;-55
2022/07/11 16:23:05;;;;;;;3.70;2.00;;;;;;;20.67;38.64;97801.84;10334874;28;20531;-56
2022/07/11 16:28:04;;;;;;;4.07;1.95;;;;;;;20.75;38.76;97812.09;10333215;28;20077;-56
2022/07/11 16:33:03;;;;;;;3.10;2.15;;;;;;;20.62;38.34;97817.00;10323890;28;20928;-56
2022/07/11 16:38:03;;;;;;;1.83;1.73;;;;;;;20.48;38.83;97825.47;10311668;28;20555;-56
2022/07/11 16:43:20;;;;;;;2.17;1.98;;;;;;;20.58;38.91;97823.31;10312851;28;20088;-56
2022/07/11 16:48:21;;;;;;;2.22;1.90;;;;;;;20.61;38.79;97828.47;10331537;28;20069;-57
2022/07/11 16:53:20;;;;;;;3.42;2.10;;;;;;;20.71;38.40;97822.78;10330816;28;20069;-57
2022/07/11 16:58:19;;;;;;;2.25;1.90;;;;;;;20.84;38.31;97838.94;10330516;28;20064;-57
2022/07/11 17:03:18;;;;;;;2.45;2.20;;;;;;;20.79;37.96;97835.63;10331009;28;20076;-56
2022/07/11 17:13:35;;;;;;;2.50;2.10;;;;;;;20.60;37.29;97834.69;10290016;28;20062;-55
2022/07/11 17:18:34;;;;;;;3.53;1.88;;;;;;;20.54;37.42;97848.97;10290499;28;20517;-55
2022/07/11 17:23:33;;;;;;;2.40;2.00;;;;;;;20.63;37.59;97848.59;10289920;28;20070;-56
2022/07/11 17:28:32;;;;;;;5.15;3.03;;;;;;;20.60;37.55;97840.78;10290327;28;20084;-57
2022/07/11 17:33:31;;;;;;;11.77;8.13;;;;;;;20.57;37.86;97862.03;10290940;28;20073;-56
2022/07/11 17:38:31;;;;;;;9.90;6.45;;;;;;;20.43;38.01;97856.44;10290402;28;20056;-55
2022/07/11 17:43:30;;;;;;;9.52;5.10;;;;;;;20.24;38.14;97859.75;10323546;28;20065;-55
2022/07/11 17:48:29;;;;;;;9.10;5.03;;;;;;;20.22;38.43;97864.22;10337669;28;20116;-55
2022/07/11 17:53:28;;;;;;;3.28;2.70;;;;;;;20.17;38.68;97870.59;10338214;28;20029;-55
2022/07/11 17:58:27;;;;;;;5.53;3.40;;;;;;;20.08;39.52;97874.41;10336991;28;20068;-56
2022/07/11 18:03:26;;;;;;;4.38;2.63;;;;;;;19.96;40.41;97874.88;10337234;28;20031;-56
2022/07/11 18:08:27;;;;;;;5.18;2.85;;;;;;;19.86;41.98;97879.59;10373734;28;20041;-56
2022/07/11 18:13:26;;;;;;;4.65;2.85;;;;;;;19.74;43.03;97887.97;10374829;28;20504;-56
2022/07/11 18:18:25;;;;;;;5.40;2.55;;;;;;;19.51;44.15;97889.63;10378186;28;20494;-55
2022/07/11 18:23:24;;;;;;;4.70;3.17;;;;;;;19.19;43.94;97886.31;10377495;28;20049;-55
2022/07/11 18:28:23;;;;;;;7.43;3.47;;;;;;;19.09;42.32;97903.31;10359169;28;20033;-55
2022/07/11 18:33:22;;;;;;;5.38;3.38;;;;;;;18.97;44.11;97908.94;10336153;28;20045;-56
2022/07/11 18:38:21;;;;;;;4.25;3.67;;;;;;;18.73;45.64;97921.13;10336737;28;20053;-55
2022/07/11 18:43:20;;;;;;;6.43;4.18;;;;;;;18.50;47.26;97925.28;10335203;28;20128;-56
2022/07/11 18:48:19;;;;;;;5.25;3.63;;;;;;;18.27;48.17;97928.59;10345684;28;20033;-56
2022/07/11 18:53:18;;;;;;;4.82;2.80;;;;;;;18.04;48.70;97941.53;10376909;28;20041;-56
2022/07/11 18:58:17;;;;;;;5.60;3.00;;;;;;;17.86;48.94;97948.13;10375050;28;20143;-56
2022/07/11 19:03:16;;;;;;;;;;;;;;;17.68;49.85;97965.19;10376046;28;20072;-56
2022/07/11 19:08:14;;;;;;;6.47;3.63;;;;;;;17.50;50.12;97967.41;10370519;28;19920;-56
2022/07/11 19:13:13;;;;;;;4.60;3.30;;;;;;;17.38;50.53;97977.34;10334103;28;20064;-56
2022/07/11 19:18:12;;;;;;;4.53;3.33;;;;;;;17.19;51.07;97976.91;10334221;28;20112;-56
2022/07/11 19:23:12;;;;;;;;;;;;;;;17.04;51.87;97984.25;10335056;28;20037;-56
2022/07/11 19:28:11;;;;;;;7.55;3.72;;;;;;;16.90;52.41;97988.97;10334285;28;19967;-56
2022/07/11 19:33:10;;;;;;;4.45;3.35;;;;;;;16.70;52.88;97976.28;10334675;28;20073;-56
2022/07/11 19:38:09;;;;;;;5.97;3.50;;;;;;;16.60;53.19;97985.22;10334337;28;20057;-56
2022/07/11 19:43:09;;;;;;;;;;;;;;;16.45;53.71;97984.66;10343722;28;20052;-56
2022/07/11 19:48:08;;;;;;;4.60;3.45;;;;;;;16.27;53.83;97990.25;10349226;28;19967;-56
2022/07/11 19:53:08;;;;;;;4.65;3.35;;;;;;;16.12;53.86;97985.34;10372426;28;20068;-56
2022/07/11 19:58:08;;;;;;;4.05;3.33;;;;;;;15.97;54.70;97992.59;10373951;28;20068;-55
2022/07/11 20:03:08;;;;;;;3.40;3.10;;;;;;;15.78;55.50;98001.63;10374297;28;20519;-56
2022/07/11 20:08:07;;;;;;;2.95;2.75;;;;;;;15.57;55.30;98001.13;10373975;28;20060;-55
2022/07/11 20:13:06;;;;;;;5.43;3.20;;;;;;;15.40;56.13;98000.53;10368450;28;20091;-56
2022/07/11 20:18:06;;;;;;;4.45;3.30;;;;;;;15.23;56.68;98011.28;10373041;28;20072;-56
2022/07/11 20:23:05;;;;;;;5.57;3.88;;;;;;;15.10;57.00;98012.34;10372853;28;20065;-55
2022/07/11 20:28:04;;;;;;;7.88;3.97;;;;;;;14.98;57.05;98014.25;10375618;28;20068;-55
2022/07/11 20:33:03;;;;;;;;;;;;;;;14.88;57.49;98011.81;10376161;28;20072;-56
2022/07/11 20:38:02;;;;;;;7.50;3.43;;;;;;;14.76;57.68;98008.47;10376201;28;19917;-56
2022/07/11 20:43:01;;;;;;;4.25;3.28;;;;;;;14.68;57.77;98022.47;10375501;28;20407;-55
2022/07/11 20:48:00;;;;;;;3.40;3.08;;;;;;;14.58;57.73;98025.22;10371167;28;20127;-55
2022/07/11 20:52:59;;;;;;;4.90;3.35;;;;;;;14.52;58.08;98024.41;10375566;28;20036;-55
2022/07/11 20:57:58;;;;;;;3.90;3.47;;;;;;;14.41;58.03;98041.09;10375228;28;20412;-55
2022/07/11 21:02:56;;;;;;;4.88;4.05;;;;;;;14.35;59.58;98030.72;10375308;28;20056;-55
2022/07/11 21:07:55;;;;;;;;;;;;;;;14.26;61.22;98041.25;10375520;28;20060;-55
2022/07/11 21:12:54;;;;;;;5.80;4.18;;;;;;;14.12;63.71;98050.97;10375886;28;19948;-55
2022/07/11 21:17:53;;;;;;;;;;;;;;;13.98;64.24;98052.00;10370549;28;20045;-55
2022/07/11 21:22:52;;;;;;;5.40;3.88;;;;;;;13.90;63.56;98050.34;10381629;28;19908;-55
2022/07/11 21:27:51;;;;;;;6.85;4.60;;;;;;;13.77;63.76;98065.22;10381149;28;20128;-55
2022/07/11 21:32:50;;;;;;;4.65;4.10;;;;;;;13.66;64.47;98067.09;10379264;28;20472;-55
2022/07/11 21:37:48;;;;;;;5.28;4.10;;;;;;;13.55;65.14;98070.63;10379007;28;20052;-55
2022/07/11 21:42:48;;;;;;;4.97;4.15;;;;;;;13.41;65.67;98075.06;10379567;28;20032;-55
2022/07/11 21:47:46;;;;;;;5.65;4.35;;;;;;;13.32;66.37;98069.91;10373698;28;20444;-55
2022/07/11 21:52:45;;;;;;;6.20;4.57;;;;;;;13.26;66.68;98077.78;10378642;28;20403;-55
2022/07/11 21:57:45;;;;;;;5.38;4.70;;;;;;;13.19;67.18;98079.56;10378613;28;20025;-55
2022/07/11 22:02:43;;;;;;;;;;;;;;;13.15;67.89;98077.84;10379155;28;20476;-55
2022/07/11 22:07:42;;;;;;;5.88;4.75;;;;;;;13.07;68.36;98069.19;10378284;28;20350;-55
2022/07/11 22:12:41;;;;;;;6.03;4.93;;;;;;;12.94;69.68;98076.22;10377909;28;20119;-56
2022/07/11 22:17:40;;;;;;;6.93;5.43;;;;;;;12.86;69.83;98075.38;10373100;28;20511;-55
2022/07/11 22:22:39;;;;;;;6.93;5.50;;;;;;;12.79;70.74;98079.78;10378198;28;20061;-55
2022/07/11 22:27:38;;;;;;;7.43;5.38;;;;;;;12.62;72.38;98072.00;10377089;28;20071;-55
2022/07/11 22:32:37;;;;;;;7.75;6.35;;;;;;;12.48;74.33;98077.28;10375539;28;20045;-55
2022/07/11 22:37:36;;;;;;;8.13;5.93;;;;;;;12.42;75.10;98079.91;10377247;28;20592;-56
2022/07/11 22:43:10;;;;;;;8.27;6.10;;;;;;;12.35;75.72;98075.59;10376751;28;20064;-55
2022/07/11 22:47:54;;;;;;;7.75;5.82;;;;;;;12.26;76.10;98076.44;10370776;28;20087;-55
2022/07/11 22:52:53;;;;;;;8.73;5.85;;;;;;;12.19;76.05;98073.88;10376540;28;20127;-55
2022/07/11 22:57:52;;;;;;;8.18;6.40;;;;;;;12.08;76.66;98084.28;10376108;28;20039;-55
2022/07/11 23:02:51;;;;;;;11.60;6.47;;;;;;;11.97;77.52;98078.22;10376000;28;20107;-55
2022/07/11 23:07:50;;;;;;;8.27;6.53;;;;;;;11.89;77.74;98076.50;10376420;28;20036;-55
2022/07/11 23:12:49;;;;;;;;;;;;;;;11.86;77.37;98081.72;10376149;28;20890;-55
2022/07/11 23:17:48;;;;;;;9.90;7.07;;;;;;;11.79;77.79;98072.19;10371347;28;20374;-55
2022/07/11 23:22:48;;;;;;;9.38;7.18;;;;;;;11.81;77.51;98083.47;10375271;28;20087;-55
2022/07/11 23:27:47;;;;;;;;;;;;;;;11.77;78.20;98097.31;10377273;28;20064;-55
2022/07/11 23:32:45;;;;;;;10.57;6.70;;;;;;;11.70;77.94;98082.59;10378157;28;19935;-55
2022/07/11 23:37:44;;;;;;;8.70;6.72;;;;;;;11.63;79.13;98084.31;10378351;28;20512;-55
2022/07/11 23:42:44;;;;;;;9.25;7.15;;;;;;;11.61;79.71;98083.47;10377639;28;20472;-55
2022/07/11 23:47:42;;;;;;;8.10;6.63;;;;;;;11.56;79.69;98081.75;10377597;28;20044;-55
2022/07/11 23:52:41;;;;;;;8.25;6.88;;;;;;;11.47;79.96;98082.59;10377583;28;20052;-55
2022/07/11 23:57:40;;;;;;;10.43;6.95;;;;;;;11.34;81.19;98086.94;10377450;28;20033;-55
